DAL171 KMSP-RKSI
Flight info
| Callsign | DAL171 |
|---|---|
| Flight time | N/A |
| Altitude | 34000 |
| Route | KBREW2 FAR DCT MOT DCT 50N106W 52N110W 56N120W 58N130W DCT SSR DCT 60N150W 60N160W DCT ORVIL DCT OGGOE DCT NANDY R220 NODAN R217 GTC Y142 SAMON Y14 SUGNO Y16 SAPRA G585 GUKDO GUKDO2H |
| Aircraft | A359/H-SDE2E3GHIJ3J4J5LM1ORWXY/LB1D1 |
Departure
| Time | 2026-05-04 12:37 |
|---|---|
| Airport | Minneapolis–Saint Paul International Airport / Wold–Chamberlain Field (KMSP) |
Arrival
| Time | N/A |
|---|---|
| Airport | Incheon International Airport (RKSI) |
| Time | Latitude | Longitude | Altitude | Speed | Heading |
|---|---|---|---|---|---|
| 2026-05-04 11:56 | 44.88116 | -93.21319 | 829 ft | 0 kts | 41° |
| 2026-05-04 12:24 | 44.88113 | -93.21323 | 829 ft | 2 kts | 41° |
| 2026-05-04 12:24 | 44.88101 | -93.21337 | 829 ft | 2 kts | 41° |
| 2026-05-04 12:24 | 44.88089 | -93.21351 | 829 ft | 2 kts | 41° |
| 2026-05-04 12:24 | 44.88079 | -93.21366 | 829 ft | 2 kts | 60° |
| 2026-05-04 12:25 | 44.88074 | -93.21385 | 828 ft | 2 kts | 79° |
| 2026-05-04 12:25 | 44.88073 | -93.21406 | 829 ft | 2 kts | 96° |
| 2026-05-04 12:25 | 44.88076 | -93.21426 | 829 ft | 2 kts | 114° |
| 2026-05-04 12:25 | 44.88083 | -93.21444 | 829 ft | 2 kts | 131° |
| 2026-05-04 12:26 | 44.88094 | -93.21458 | 829 ft | 2 kts | 140° |
| 2026-05-04 12:26 | 44.88105 | -93.21472 | 830 ft | 2 kts | 137° |
| 2026-05-04 12:26 | 44.88109 | -93.21476 | 830 ft | 0 kts | 137° |
| 2026-05-04 12:31 | 44.88103 | -93.21468 | 830 ft | 2 kts | 139° |
| 2026-05-04 12:31 | 44.88077 | -93.21441 | 829 ft | 7 kts | 146° |
| 2026-05-04 12:31 | 44.88030 | -93.21381 | 828 ft | 11 kts | 128° |
| 2026-05-04 12:32 | 44.87981 | -93.21275 | 827 ft | 13 kts | 122° |
| 2026-05-04 12:32 | 44.87880 | -93.21040 | 825 ft | 15 kts | 121° |
| 2026-05-04 12:32 | 44.87820 | -93.20903 | 822 ft | 17 kts | 122° |
| 2026-05-04 12:33 | 44.87754 | -93.20754 | 819 ft | 19 kts | 122° |
| 2026-05-04 12:33 | 44.87685 | -93.20591 | 818 ft | 19 kts | 120° |
| 2026-05-04 12:33 | 44.87627 | -93.20457 | 816 ft | 15 kts | 121° |
| 2026-05-04 12:33 | 44.87567 | -93.20318 | 814 ft | 17 kts | 121° |
| 2026-05-04 12:34 | 44.87518 | -93.20204 | 814 ft | 10 kts | 121° |
| 2026-05-04 12:34 | 44.87478 | -93.20111 | 813 ft | 12 kts | 122° |
| 2026-05-04 12:34 | 44.87442 | -93.20074 | 812 ft | 9 kts | 176° |
| 2026-05-04 12:34 | 44.87378 | -93.20122 | 812 ft | 7 kts | 216° |
| 2026-05-04 12:35 | 44.87376 | -93.20168 | 812 ft | 1 kts | 300° |
| 2026-05-04 12:35 | 44.87377 | -93.20170 | 812 ft | 1 kts | 300° |
| 2026-05-04 12:36 | 44.87458 | -93.20364 | 813 ft | 54 kts | 300° |
| 2026-05-04 12:36 | 44.87759 | -93.21058 | 825 ft | 111 kts | 302° |
| 2026-05-04 12:36 | 44.88262 | -93.22197 | 837 ft | 160 kts | 300° |
| 2026-05-04 12:36 | 44.88884 | -93.23614 | 1232 ft | 169 kts | 297° |
| 2026-05-04 12:37 | 44.89498 | -93.24957 | 1947 ft | 162 kts | 296° |
| 2026-05-04 12:37 | 44.90224 | -93.26115 | 2520 ft | 167 kts | 325° |
| 2026-05-04 12:37 | 44.91427 | -93.26427 | 2781 ft | 185 kts | 348° |
| 2026-05-04 12:37 | 44.92715 | -93.26504 | 3098 ft | 188 kts | 347° |
| 2026-05-04 12:38 | 44.94024 | -93.26567 | 3499 ft | 186 kts | 347° |
| 2026-05-04 12:38 | 44.95300 | -93.26606 | 3890 ft | 184 kts | 348° |
| 2026-05-04 12:38 | 44.96587 | -93.26623 | 4261 ft | 184 kts | 348° |
| 2026-05-04 12:38 | 44.97846 | -93.26625 | 4620 ft | 183 kts | 349° |
| 2026-05-04 12:39 | 44.99159 | -93.26617 | 4825 ft | 192 kts | 349° |
| 2026-05-04 12:39 | 45.00547 | -93.26639 | 4928 ft | 206 kts | 349° |
| 2026-05-04 12:39 | 45.02016 | -93.26691 | 5057 ft | 219 kts | 349° |
| 2026-05-04 12:39 | 45.03587 | -93.26773 | 5261 ft | 232 kts | 349° |
| 2026-05-04 12:40 | 45.05238 | -93.26878 | 5517 ft | 243 kts | 348° |
| 2026-05-04 12:40 | 45.06955 | -93.27091 | 5781 ft | 250 kts | 337° |
| 2026-05-04 12:40 | 45.08380 | -93.28319 | 6181 ft | 239 kts | 307° |
| 2026-05-04 12:40 | 45.09438 | -93.30064 | 6819 ft | 237 kts | 309° |
| 2026-05-04 12:41 | 45.10607 | -93.31741 | 7275 ft | 243 kts | 311° |
| 2026-05-04 12:41 | 45.11841 | -93.33418 | 7807 ft | 246 kts | 311° |
| 2026-05-04 12:41 | 45.12651 | -93.34512 | 8140 ft | 247 kts | 310° |
| 2026-05-04 12:41 | 45.14226 | -93.36868 | 8806 ft | 247 kts | 302° |
| 2026-05-04 12:42 | 45.15190 | -93.38865 | 9321 ft | 246 kts | 296° |
| 2026-05-04 12:42 | 45.16034 | -93.40981 | 9810 ft | 248 kts | 294° |
| 2026-05-04 12:42 | 45.16861 | -93.43106 | 10285 ft | 250 kts | 294° |
| 2026-05-04 12:42 | 45.17722 | -93.45333 | 10524 ft | 262 kts | 294° |
| 2026-05-04 12:43 | 45.18613 | -93.47629 | 10763 ft | 273 kts | 295° |
| 2026-05-04 12:43 | 45.19541 | -93.50021 | 11007 ft | 284 kts | 295° |
| 2026-05-04 12:43 | 45.20512 | -93.52516 | 11232 ft | 295 kts | 295° |
| 2026-05-04 12:43 | 45.21526 | -93.55126 | 11460 ft | 306 kts | 295° |
| 2026-05-04 12:44 | 45.22566 | -93.57797 | 11681 ft | 317 kts | 295° |
| 2026-05-04 12:44 | 45.23643 | -93.60564 | 11901 ft | 327 kts | 295° |
| 2026-05-04 12:44 | 45.24390 | -93.62484 | 12041 ft | 334 kts | 295° |
| 2026-05-04 12:44 | 45.25901 | -93.66376 | 12341 ft | 346 kts | 295° |
| 2026-05-04 12:45 | 45.27080 | -93.69421 | 12748 ft | 351 kts | 295° |
| 2026-05-04 12:45 | 45.28239 | -93.72422 | 13194 ft | 354 kts | 295° |
| 2026-05-04 12:45 | 45.29036 | -93.74482 | 13539 ft | 354 kts | 295° |
| 2026-05-04 12:45 | 45.30617 | -93.78571 | 14165 ft | 356 kts | 295° |
| 2026-05-04 12:46 | 45.31807 | -93.81651 | 14582 ft | 358 kts | 295° |
| 2026-05-04 12:46 | 45.33001 | -93.84750 | 15025 ft | 360 kts | 295° |
| 2026-05-04 12:46 | 45.34205 | -93.87869 | 15460 ft | 361 kts | 295° |
| 2026-05-04 12:46 | 45.35415 | -93.91014 | 15881 ft | 363 kts | 295° |
| 2026-05-04 12:47 | 45.36207 | -93.93072 | 16145 ft | 364 kts | 295° |
| 2026-05-04 12:47 | 45.37833 | -93.97308 | 16712 ft | 366 kts | 295° |
| 2026-05-04 12:47 | 45.39050 | -94.00478 | 17090 ft | 367 kts | 295° |
| 2026-05-04 12:47 | 45.40275 | -94.03676 | 17470 ft | 369 kts | 295° |
| 2026-05-04 12:48 | 45.41497 | -94.06864 | 17856 ft | 370 kts | 295° |
| 2026-05-04 12:48 | 45.42736 | -94.10103 | 18207 ft | 372 kts | 295° |
| 2026-05-04 12:48 | 45.43968 | -94.13339 | 18579 ft | 374 kts | 295° |
| 2026-05-04 12:48 | 45.45204 | -94.16579 | 18938 ft | 375 kts | 295° |
| 2026-05-04 12:49 | 45.46442 | -94.19832 | 19276 ft | 376 kts | 295° |
| 2026-05-04 12:49 | 45.47684 | -94.23097 | 19629 ft | 377 kts | 295° |
| 2026-05-04 12:49 | 45.48940 | -94.26405 | 19981 ft | 379 kts | 295° |
| 2026-05-04 12:49 | 45.49777 | -94.28609 | 20208 ft | 379 kts | 295° |
| 2026-05-04 12:50 | 45.51440 | -94.32994 | 20667 ft | 380 kts | 295° |
| 2026-05-04 12:50 | 45.52683 | -94.36272 | 21017 ft | 380 kts | 295° |
| 2026-05-04 12:50 | 45.53953 | -94.39626 | 21343 ft | 381 kts | 295° |
| 2026-05-04 12:50 | 45.55200 | -94.42930 | 21662 ft | 382 kts | 295° |
| 2026-05-04 12:51 | 45.56464 | -94.46273 | 21943 ft | 384 kts | 296° |
| 2026-05-04 12:51 | 45.57780 | -94.49548 | 22218 ft | 386 kts | 297° |
| 2026-05-04 12:51 | 45.59223 | -94.52795 | 22509 ft | 388 kts | 300° |
| 2026-05-04 12:51 | 45.60766 | -94.55946 | 22811 ft | 390 kts | 302° |
| 2026-05-04 12:52 | 45.62381 | -94.59077 | 23110 ft | 391 kts | 302° |
| 2026-05-04 12:52 | 45.63983 | -94.62178 | 23390 ft | 391 kts | 302° |
| 2026-05-04 12:52 | 45.65598 | -94.65298 | 23628 ft | 393 kts | 302° |
| 2026-05-04 12:52 | 45.67218 | -94.68435 | 23900 ft | 394 kts | 302° |
| 2026-05-04 12:53 | 45.68857 | -94.71614 | 24169 ft | 395 kts | 302° |
| 2026-05-04 12:53 | 45.70478 | -94.74757 | 24383 ft | 396 kts | 302° |
| 2026-05-04 12:53 | 45.72095 | -94.77897 | 24609 ft | 398 kts | 302° |
| 2026-05-04 12:53 | 45.73734 | -94.81076 | 24890 ft | 397 kts | 302° |
| 2026-05-04 12:54 | 45.75382 | -94.84274 | 25147 ft | 398 kts | 301° |
| 2026-05-04 12:54 | 45.77027 | -94.87472 | 25328 ft | 400 kts | 302° |
| 2026-05-04 12:54 | 45.78664 | -94.90653 | 25566 ft | 400 kts | 302° |
| 2026-05-04 12:54 | 45.80304 | -94.93847 | 25766 ft | 401 kts | 302° |
| 2026-05-04 12:55 | 45.81955 | -94.97070 | 25914 ft | 402 kts | 302° |
| 2026-05-04 12:55 | 45.83617 | -95.00316 | 26112 ft | 403 kts | 302° |
| 2026-05-04 12:55 | 45.85250 | -95.03502 | 26321 ft | 403 kts | 302° |
| 2026-05-04 12:55 | 45.86909 | -95.06735 | 26511 ft | 403 kts | 302° |
| 2026-05-04 12:56 | 45.88569 | -95.09988 | 26670 ft | 404 kts | 302° |
| 2026-05-04 12:56 | 45.90229 | -95.13245 | 26891 ft | 403 kts | 302° |
| 2026-05-04 12:56 | 45.91872 | -95.16471 | 27039 ft | 404 kts | 302° |
| 2026-05-04 12:56 | 45.93541 | -95.19746 | 27129 ft | 406 kts | 302° |
| 2026-05-04 12:57 | 45.95213 | -95.23032 | 27251 ft | 407 kts | 302° |
| 2026-05-04 12:57 | 45.96880 | -95.26306 | 27407 ft | 408 kts | 302° |